createdAt,value
2022-12-17T00:01:21.750Z,81.24
2022-12-17T00:04:07.047Z,81.17
2022-12-17T00:06:54.775Z,81.03
2022-12-17T00:09:43.601Z,80.89
2022-12-17T00:12:32.432Z,80.71
2022-12-17T00:15:17.722Z,80.52
2022-12-17T00:18:03.054Z,80.65
2022-12-17T00:20:49.155Z,80.92
2022-12-17T00:23:37.730Z,81.30
2022-12-17T00:26:23.718Z,81.88
2022-12-17T00:29:11.819Z,81.46
2022-12-17T00:31:57.563Z,81.59
2022-12-17T00:34:42.838Z,82.53
2022-12-17T00:37:31.173Z,83.81
2022-12-17T00:40:16.482Z,83.16
2022-12-17T00:43:01.631Z,83.33
2022-12-17T00:45:48.733Z,81.48
2022-12-17T00:48:37.109Z,81.81
2022-12-17T00:51:22.765Z,82.65
2022-12-17T00:54:08.101Z,82.02
2022-12-17T00:56:53.339Z,82.64
2022-12-17T00:59:41.900Z,81.76
2022-12-17T01:02:27.293Z,81.29
2022-12-17T01:05:13.039Z,79.92
2022-12-17T01:08:00.977Z,80.17
2022-12-17T01:10:46.486Z,80.18
2022-12-17T01:13:36.106Z,79.59
2022-12-17T01:16:31.382Z,80.45
2022-12-17T01:19:17.837Z,79.42
2022-12-17T01:22:06.204Z,80.44
2022-12-17T01:24:54.124Z,80.00
2022-12-17T01:27:44.150Z,79.19
2022-12-17T01:32:57.873Z,79.20
2022-12-17T01:35:43.697Z,79.71
2022-12-17T01:38:35.395Z,79.55
2022-12-17T01:41:22.052Z,80.19
2022-12-17T01:44:07.288Z,80.97
2022-12-17T01:47:00.029Z,80.79
2022-12-17T01:49:46.881Z,80.36
2022-12-17T01:52:35.030Z,80.34
2022-12-17T01:55:23.229Z,78.75
2022-12-17T01:58:09.226Z,80.14
2022-12-17T02:00:54.847Z,81.76
2022-12-17T02:03:42.495Z,81.32
2022-12-17T02:06:34.512Z,80.53
2022-12-17T02:09:26.696Z,80.36
2022-12-17T02:12:26.927Z,80.26
2022-12-17T02:15:37.125Z,81.96
2022-12-17T02:18:31.600Z,82.25
2022-12-17T02:21:19.490Z,81.51
2022-12-17T02:24:26.744Z,80.84
2022-12-17T02:27:18.143Z,82.13
2022-12-17T02:30:11.665Z,81.62
2022-12-17T02:33:00.881Z,81.34
2022-12-17T02:36:03.848Z,81.00
2022-12-17T02:38:50.915Z,81.71
2022-12-17T02:41:58.218Z,81.89
2022-12-17T02:44:45.146Z,80.98
2022-12-17T02:47:34.389Z,82.32
2022-12-17T02:50:20.186Z,82.08
2022-12-17T02:53:07.425Z,81.79
2022-12-17T02:55:54.512Z,82.62
2022-12-17T02:58:40.284Z,83.13
2022-12-17T03:01:26.436Z,82.33
2022-12-17T03:04:11.673Z,82.07
2022-12-17T03:06:57.034Z,81.63
2022-12-17T03:09:42.934Z,81.48
2022-12-17T03:12:28.272Z,80.84
2022-12-17T03:15:13.827Z,80.63
2022-12-17T03:18:03.824Z,81.72
2022-12-17T03:20:48.958Z,81.37
2022-12-17T03:23:39.687Z,81.75
2022-12-17T03:26:25.532Z,82.00
2022-12-17T03:29:10.563Z,82.46
2022-12-17T03:31:56.525Z,82.45
2022-12-17T03:34:41.675Z,83.24
2022-12-17T03:37:27.346Z,81.44
2022-12-17T03:40:13.194Z,81.50
2022-12-17T03:43:01.105Z,81.92
2022-12-17T03:45:57.016Z,82.04
2022-12-17T03:48:44.989Z,82.76
2022-12-17T03:51:52.245Z,81.08
2022-12-17T03:54:37.888Z,80.86
2022-12-17T03:57:25.950Z,80.99
2022-12-17T04:00:11.294Z,80.52
2022-12-17T04:02:56.719Z,80.55
2022-12-17T04:05:42.067Z,80.90
2022-12-17T04:08:27.521Z,82.33
2022-12-17T04:11:12.941Z,82.24
2022-12-17T04:14:00.837Z,82.71
2022-12-17T04:16:48.824Z,83.42
2022-12-17T04:19:36.707Z,83.39
2022-12-17T04:22:25.089Z,82.81
2022-12-17T04:25:10.215Z,82.85
2022-12-17T04:27:57.912Z,83.11
2022-12-17T04:30:46.039Z,83.67
2022-12-17T04:33:37.669Z,83.50
2022-12-17T04:36:23.587Z,84.27
2022-12-17T04:39:09.341Z,83.60
2022-12-17T04:41:57.303Z,83.88
2022-12-17T04:44:42.979Z,84.76
2022-12-17T04:47:28.278Z,84.31
2022-12-17T04:50:14.060Z,84.50
2022-12-17T04:53:01.897Z,84.34
2022-12-17T04:55:47.290Z,84.37
2022-12-17T04:58:35.535Z,84.38
2022-12-17T05:01:20.753Z,85.09
2022-12-17T05:04:06.353Z,84.32
2022-12-17T05:06:52.053Z,83.52
2022-12-17T05:09:39.767Z,83.93
2022-12-17T05:12:25.167Z,85.13
2022-12-17T05:15:10.733Z,84.22
2022-12-17T05:17:57.169Z,84.66
2022-12-17T05:20:47.901Z,85.41
2022-12-17T05:23:33.691Z,85.06
2022-12-17T05:26:26.368Z,84.97
2022-12-17T05:29:15.818Z,84.72
2022-12-17T05:32:01.466Z,84.18
2022-12-17T05:34:46.761Z,83.91
2022-12-17T05:37:32.230Z,84.50
2022-12-17T05:40:17.584Z,83.24
2022-12-17T05:43:18.818Z,83.53
2022-12-17T05:46:05.590Z,83.43
2022-12-17T05:48:52.068Z,84.64
2022-12-17T05:51:40.416Z,84.85
2022-12-17T05:54:26.510Z,84.66
2022-12-17T05:57:12.605Z,83.98
2022-12-17T05:59:57.887Z,85.28
2022-12-17T06:02:43.657Z,84.34
2022-12-17T06:05:30.531Z,86.07
2022-12-17T06:08:46.846Z,84.82
2022-12-17T06:11:32.472Z,84.88
2022-12-17T06:14:17.585Z,85.56
2022-12-17T06:17:03.195Z,86.75
2022-12-17T06:19:48.676Z,87.34
2022-12-17T06:22:34.159Z,86.14
2022-12-17T06:25:19.522Z,85.76
2022-12-17T06:28:04.743Z,86.30
2022-12-17T06:30:50.174Z,86.95
2022-12-17T06:33:36.301Z,86.09
2022-12-17T06:36:23.049Z,86.29
2022-12-17T06:39:09.826Z,85.63
2022-12-17T06:42:02.159Z,85.74
2022-12-17T06:44:49.758Z,85.84
2022-12-17T06:47:35.741Z,86.22
2022-12-17T06:50:21.404Z,86.00
2022-12-17T06:53:06.714Z,86.32
2022-12-17T06:55:52.430Z,86.00
2022-12-17T06:58:40.226Z,85.77
2022-12-17T07:01:25.718Z,85.45
2022-12-17T07:04:10.910Z,85.33
2022-12-17T07:06:56.430Z,84.94
2022-12-17T07:09:41.711Z,85.55
2022-12-17T07:12:29.512Z,84.78
2022-12-17T07:15:28.783Z,84.72
2022-12-17T07:18:21.273Z,84.59
2022-12-17T07:21:12.459Z,85.31
2022-12-17T07:24:00.994Z,85.51
2022-12-17T07:26:49.573Z,84.26
2022-12-17T07:29:51.676Z,85.66
2022-12-17T07:32:39.657Z,84.10
2022-12-17T07:35:26.118Z,84.80
2022-12-17T07:38:24.132Z,84.50
2022-12-17T07:41:09.973Z,84.35
2022-12-17T07:43:55.308Z,84.58
2022-12-17T07:46:43.049Z,84.34
2022-12-17T07:49:30.926Z,83.41
2022-12-17T07:52:16.440Z,83.73
2022-12-17T07:55:01.749Z,84.53
2022-12-17T07:57:49.533Z,83.17
2022-12-17T08:00:35.356Z,84.01
2022-12-17T08:03:21.216Z,83.92
2022-12-17T08:06:06.558Z,82.84
2022-12-17T08:08:54.544Z,80.90
2022-12-17T08:11:40.079Z,75.91
2022-12-17T08:14:25.626Z,74.32
2022-12-17T08:17:10.916Z,69.41
2022-12-17T08:19:56.255Z,68.40
2022-12-17T08:22:41.861Z,67.23
2022-12-17T08:25:29.403Z,62.36
2022-12-17T08:28:48.403Z,61.17
2022-12-17T08:31:23.144Z,59.37
2022-12-17T08:34:08.502Z,57.11
2022-12-17T08:36:53.695Z,53.30
2022-12-17T08:39:41.680Z,51.84
2022-12-17T08:42:27.024Z,51.88
2022-12-17T08:45:12.672Z,49.95
2022-12-17T08:48:03.605Z,49.50
2022-12-17T08:50:49.808Z,46.52
2022-12-17T08:53:37.855Z,46.83
2022-12-17T08:56:24.102Z,47.26
2022-12-17T08:59:09.962Z,46.51
2022-12-17T09:01:55.361Z,45.70
2022-12-17T09:04:40.927Z,45.34
2022-12-17T09:07:28.563Z,44.22
2022-12-17T09:10:13.904Z,44.85
2022-12-17T09:13:04.408Z,43.40
2022-12-17T09:15:50.590Z,43.08
2022-12-17T09:18:40.705Z,42.10
2022-12-17T09:21:27.096Z,41.00
2022-12-17T09:24:12.572Z,41.16
2022-12-17T09:26:58.355Z,42.53
2022-12-17T09:29:46.439Z,40.57
2022-12-17T09:32:31.866Z,39.54
2022-12-17T09:35:19.635Z,40.39
2022-12-17T09:38:24.815Z,39.86
2022-12-17T09:41:10.743Z,38.53
2022-12-17T09:44:13.859Z,37.46
2022-12-17T09:47:33.401Z,36.76
2022-12-17T09:50:25.679Z,35.05
2022-12-17T09:53:11.548Z,34.23
2022-12-17T09:56:09.094Z,33.94
2022-12-17T09:58:59.822Z,33.00
2022-12-17T10:01:53.855Z,33.31
2022-12-17T10:05:03.801Z,32.61
2022-12-17T10:07:57.505Z,31.20
2022-12-17T10:10:51.928Z,32.05
2022-12-17T10:13:41.445Z,32.77
2022-12-17T10:16:57.425Z,33.93
2022-12-17T10:19:55.879Z,34.86
2022-12-17T10:22:43.979Z,32.64
2022-12-17T10:25:41.486Z,31.53
2022-12-17T10:28:37.075Z,32.68
2022-12-17T10:31:49.606Z,41.35
2022-12-17T10:34:39.786Z,45.89
2022-12-17T10:37:37.187Z,51.13
2022-12-17T10:40:38.170Z,53.40
2022-12-17T10:43:41.811Z,57.77
2022-12-17T10:46:29.966Z,57.56
2022-12-17T10:49:42.211Z,50.58
2022-12-17T10:52:46.711Z,42.30
2022-12-17T10:55:46.989Z,38.81
2022-12-17T10:58:39.695Z,36.61
2022-12-17T11:01:30.167Z,34.61
2022-12-17T11:04:18.370Z,35.71
2022-12-17T11:07:07.752Z,33.84
2022-12-17T11:10:09.866Z,33.77
2022-12-17T11:13:02.556Z,33.97
2022-12-17T11:16:02.284Z,33.15
2022-12-17T11:19:29.332Z,30.43
2022-12-17T11:23:02.350Z,30.72
2022-12-17T11:26:31.597Z,31.57
2022-12-17T11:29:18.590Z,31.52
2022-12-17T11:32:45.196Z,29.64
2022-12-17T11:35:42.270Z,27.95
2022-12-17T11:38:48.658Z,27.68
2022-12-17T11:42:41.550Z,26.36
2022-12-17T11:45:47.627Z,28.06
2022-12-17T11:48:54.947Z,27.02
2022-12-17T11:52:15.771Z,28.80
2022-12-17T11:55:19.748Z,28.56
2022-12-17T11:58:23.291Z,27.59
2022-12-17T12:01:50.808Z,30.27
2022-12-17T12:05:05.956Z,32.16
2022-12-17T12:08:05.668Z,31.69
2022-12-17T12:11:20.047Z,30.37
2022-12-17T12:14:25.016Z,31.08
2022-12-17T12:17:35.986Z,30.42
2022-12-17T12:20:43.680Z,30.39
2022-12-17T12:23:48.748Z,32.16
2022-12-17T12:26:46.590Z,31.26
2022-12-17T12:29:59.365Z,30.15
2022-12-17T12:33:06.824Z,29.11
2022-12-17T12:35:58.959Z,30.72
2022-12-17T12:38:51.724Z,30.26
2022-12-17T12:41:52.727Z,30.50
2022-12-17T12:45:06.089Z,32.05
2022-12-17T12:48:28.418Z,31.04
2022-12-17T12:51:33.691Z,31.41
2022-12-17T12:54:49.342Z,30.16
2022-12-17T12:58:14.180Z,30.42
2022-12-17T13:01:12.926Z,31.22
2022-12-17T13:04:01.297Z,30.84
2022-12-17T13:06:46.890Z,30.25
2022-12-17T13:09:17.066Z,30.75
2022-12-17T13:12:02.885Z,31.24
2022-12-17T13:14:52.698Z,31.70
2022-12-17T13:17:27.873Z,31.72
2022-12-17T13:19:57.812Z,32.46
2022-12-17T13:22:24.912Z,32.17
2022-12-17T13:24:56.775Z,31.92
2022-12-17T13:27:35.581Z,32.99
2022-12-17T13:30:17.784Z,33.80
2022-12-17T13:33:13.735Z,32.30
2022-12-17T13:35:43.224Z,32.11
2022-12-17T13:38:39.385Z,33.76
2022-12-17T13:41:14.768Z,32.61
2022-12-17T13:43:51.125Z,31.64
2022-12-17T13:46:27.698Z,32.10
2022-12-17T13:49:00.268Z,34.52
2022-12-17T13:51:35.332Z,34.30
2022-12-17T13:54:05.967Z,33.63
2022-12-17T13:56:37.801Z,35.29
2022-12-17T13:59:09.144Z,35.14
2022-12-17T14:01:49.828Z,34.42
2022-12-17T14:04:28.822Z,34.78
2022-12-17T14:07:06.123Z,35.78
2022-12-17T14:09:40.350Z,37.89
2022-12-17T14:12:23.773Z,40.51
2022-12-17T14:15:01.520Z,44.13
2022-12-17T14:17:35.142Z,48.19
2022-12-17T14:20:10.670Z,48.90
2022-12-17T14:22:51.302Z,50.53
2022-12-17T14:25:23.535Z,53.06
2022-12-17T14:28:33.024Z,55.24
2022-12-17T14:31:28.600Z,55.63
2022-12-17T14:34:14.104Z,58.69
2022-12-17T14:36:43.953Z,58.78
2022-12-17T14:39:34.609Z,59.69
2022-12-17T14:42:26.425Z,59.95
2022-12-17T14:45:02.252Z,60.63
2022-12-17T14:47:38.513Z,61.35
2022-12-17T14:50:28.163Z,62.98
2022-12-17T14:52:58.907Z,62.80
2022-12-17T14:55:55.893Z,63.75
2022-12-17T14:58:25.392Z,63.81
2022-12-17T15:01:00.642Z,64.22
2022-12-17T15:03:34.148Z,65.58
2022-12-17T15:06:07.431Z,66.27
2022-12-17T15:08:43.333Z,66.85
2022-12-17T15:11:14.991Z,68.60
2022-12-17T15:13:44.751Z,67.94
2022-12-17T15:16:13.345Z,68.21
2022-12-17T15:18:40.803Z,68.31
2022-12-17T15:21:13.074Z,68.88
2022-12-17T15:23:43.384Z,69.30
2022-12-17T15:26:11.182Z,69.71
2022-12-17T15:28:38.376Z,70.67
2022-12-17T15:31:08.232Z,71.13
2022-12-17T15:33:35.125Z,71.31
2022-12-17T15:36:03.444Z,71.97
2022-12-17T15:38:30.394Z,72.02
2022-12-17T15:41:00.712Z,71.92
2022-12-17T15:43:27.514Z,71.81
2022-12-17T15:45:54.452Z,71.96
2022-12-17T15:48:23.336Z,71.88
2022-12-17T15:50:50.391Z,71.53
2022-12-17T15:53:17.347Z,71.59
2022-12-17T15:55:44.659Z,72.20
2022-12-17T15:58:14.095Z,73.08
2022-12-17T16:00:44.183Z,73.46
2022-12-17T16:03:14.067Z,73.31
2022-12-17T16:05:41.128Z,73.30
2022-12-17T16:08:07.959Z,73.26
2022-12-17T16:10:34.938Z,72.67
2022-12-17T16:13:03.897Z,72.45
2022-12-17T16:15:30.906Z,72.62
2022-12-17T16:17:57.850Z,72.85
2022-12-17T16:20:27.833Z,72.75
2022-12-17T16:22:56.968Z,72.90
2022-12-17T16:25:23.839Z,73.34
2022-12-17T16:27:50.809Z,73.40
2022-12-17T16:30:18.032Z,74.81
2022-12-17T16:32:44.931Z,74.35
2022-12-17T16:35:11.907Z,73.67
2022-12-17T16:37:38.746Z,73.69
2022-12-17T16:40:06.747Z,73.92
2022-12-17T16:42:36.222Z,74.74
2022-12-17T16:45:03.344Z,75.06
2022-12-17T16:47:30.237Z,74.61
2022-12-17T16:49:57.201Z,75.61
2022-12-17T16:52:24.241Z,74.44
2022-12-17T16:54:51.150Z,75.25
2022-12-17T16:57:18.220Z,75.70
2022-12-17T16:59:47.455Z,75.48
2022-12-17T17:02:18.585Z,75.55
2022-12-17T17:04:45.744Z,75.89
2022-12-17T17:07:12.715Z,76.73
2022-12-17T17:09:42.211Z,76.94
2022-12-17T17:12:11.925Z,76.90
2022-12-17T17:14:40.317Z,77.45
2022-12-17T17:17:07.304Z,78.06
2022-12-17T17:19:34.137Z,77.26
2022-12-17T17:22:00.964Z,78.15
2022-12-17T17:24:30.823Z,77.85
2022-12-17T17:27:00.304Z,77.88
2022-12-17T17:29:29.442Z,78.12
2022-12-17T17:32:16.554Z,78.27
2022-12-17T17:34:43.560Z,78.42
2022-12-17T17:37:13.518Z,78.94
2022-12-17T17:39:42.713Z,79.54
2022-12-17T17:42:09.985Z,79.97
2022-12-17T17:44:38.339Z,80.18
2022-12-17T17:47:05.514Z,79.55
2022-12-17T17:49:35.488Z,78.68
2022-12-17T17:52:11.346Z,78.94
2022-12-17T17:54:43.414Z,79.54
2022-12-17T17:57:10.624Z,77.92
2022-12-17T17:59:39.493Z,78.54
2022-12-17T18:02:11.121Z,78.74
2022-12-17T18:04:38.605Z,79.42
2022-12-17T18:09:55.574Z,79.63
2022-12-17T18:12:41.406Z,79.59
2022-12-17T18:15:14.809Z,79.81
2022-12-17T18:17:45.095Z,79.74
2022-12-17T18:20:13.192Z,78.42
2022-12-17T18:22:40.286Z,78.53
2022-12-17T18:25:07.807Z,79.56
2022-12-17T18:27:35.079Z,78.49
2022-12-17T18:30:02.352Z,79.22
2022-12-17T18:32:29.503Z,78.82
2022-12-17T18:34:56.742Z,78.44
2022-12-17T18:37:23.612Z,77.43
2022-12-17T18:39:53.596Z,78.55
2022-12-17T18:42:41.276Z,78.09
2022-12-17T18:45:12.251Z,78.72
2022-12-17T18:47:40.000Z,79.22
2022-12-17T18:50:07.831Z,78.21
2022-12-17T18:52:39.890Z,77.77
2022-12-17T18:55:10.420Z,78.82
2022-12-17T18:57:41.077Z,78.33
2022-12-17T19:00:09.814Z,78.13
2022-12-17T19:02:37.816Z,77.92
2022-12-17T19:05:07.711Z,77.75
2022-12-17T19:07:35.597Z,78.35
2022-12-17T19:10:06.180Z,78.57
2022-12-17T19:12:35.879Z,78.95
2022-12-17T19:15:03.413Z,77.99
2022-12-17T19:17:33.344Z,78.83
2022-12-17T19:20:02.831Z,79.01
2022-12-17T19:22:32.571Z,79.34
2022-12-17T19:25:03.544Z,78.89
2022-12-17T19:27:33.161Z,80.11
2022-12-17T19:30:00.030Z,79.51
2022-12-17T19:32:29.179Z,80.31
2022-12-17T19:34:55.990Z,79.52
2022-12-17T19:37:25.991Z,80.26
2022-12-17T19:39:52.838Z,80.55
2022-12-17T19:42:25.634Z,79.78
2022-12-17T19:44:56.626Z,79.05
2022-12-17T19:47:24.538Z,79.30
2022-12-17T19:49:54.531Z,79.52
2022-12-17T19:52:24.109Z,79.51
2022-12-17T19:54:51.067Z,79.11
2022-12-17T19:57:18.064Z,79.67
2022-12-17T19:59:45.280Z,78.82
2022-12-17T20:02:17.514Z,79.43
2022-12-17T20:04:48.259Z,79.01
2022-12-17T20:07:15.973Z,78.78
2022-12-17T20:09:44.983Z,79.32
2022-12-17T20:12:12.856Z,78.42
2022-12-17T20:14:40.730Z,77.96
2022-12-17T20:17:07.799Z,77.65
2022-12-17T20:19:35.015Z,77.34
2022-12-17T20:22:06.602Z,78.51
2022-12-17T20:24:33.977Z,78.26
2022-12-17T20:27:03.948Z,78.20
2022-12-17T20:29:33.745Z,78.78
2022-12-17T20:32:02.770Z,79.19
2022-12-17T20:34:33.879Z,79.80
2022-12-17T20:37:01.016Z,79.45
2022-12-17T20:39:28.604Z,78.77
2022-12-17T20:41:57.088Z,78.38
2022-12-17T20:44:24.263Z,78.88
2022-12-17T20:46:51.149Z,77.84
2022-12-17T20:49:23.815Z,78.79
2022-12-17T20:51:50.787Z,78.97
2022-12-17T20:54:19.580Z,78.59
2022-12-17T20:56:49.056Z,79.02
2022-12-17T20:59:18.665Z,78.50
2022-12-17T21:01:50.372Z,78.67
2022-12-17T21:04:21.505Z,78.78
2022-12-17T21:06:48.920Z,78.53
2022-12-17T21:09:19.968Z,79.03
2022-12-17T21:11:47.006Z,78.79
2022-12-17T21:14:17.165Z,79.39
2022-12-17T21:16:47.620Z,80.42
2022-12-17T21:19:18.253Z,79.11
2022-12-17T21:21:45.571Z,79.40
2022-12-17T21:24:17.322Z,79.76
2022-12-17T21:26:47.979Z,79.43
2022-12-17T21:29:21.848Z,78.33
2022-12-17T21:31:52.651Z,78.75
2022-12-17T21:34:22.903Z,79.04
2022-12-17T21:36:51.022Z,78.78
2022-12-17T21:39:20.824Z,78.45
2022-12-17T21:42:08.086Z,78.08
2022-12-17T21:44:38.185Z,78.36
2022-12-17T21:47:07.576Z,78.69
2022-12-17T21:49:36.896Z,78.38
2022-12-17T21:52:07.468Z,78.68
2022-12-17T21:54:40.436Z,78.94
2022-12-17T21:57:07.835Z,78.03
2022-12-17T21:59:43.774Z,78.64
2022-12-17T22:02:11.306Z,78.17
2022-12-17T22:04:38.587Z,78.85
2022-12-17T22:07:13.657Z,78.47
2022-12-17T22:10:01.276Z,79.01
2022-12-17T22:12:54.996Z,77.95
2022-12-17T22:15:25.712Z,77.37
2022-12-17T22:17:57.467Z,78.08
2022-12-17T22:20:25.301Z,78.82
2022-12-17T22:22:54.474Z,78.88
2022-12-17T22:25:21.492Z,79.07
2022-12-17T22:27:48.615Z,79.98
2022-12-17T22:30:36.784Z,79.19
2022-12-17T22:33:13.298Z,78.61
2022-12-17T22:37:59.667Z,79.18
2022-12-17T22:42:06.214Z,81.01
2022-12-17T22:44:46.139Z,80.99
2022-12-17T22:44:51.305Z,80.93
2022-12-17T22:47:16.711Z,79.89
2022-12-17T22:49:44.257Z,80.14
2022-12-17T22:52:14.744Z,79.69
2022-12-17T22:54:47.454Z,80.29
2022-12-17T22:57:37.750Z,79.48
2022-12-17T23:00:29.291Z,79.03
2022-12-17T23:02:56.699Z,79.43
2022-12-17T23:05:28.238Z,78.55
2022-12-17T23:07:55.992Z,79.33
2022-12-17T23:10:28.467Z,78.57
2022-12-17T23:12:58.017Z,79.04
2022-12-17T23:15:33.097Z,78.73
2022-12-17T23:18:06.408Z,78.88
2022-12-17T23:20:34.872Z,78.57
2022-12-17T23:23:04.387Z,78.99
2022-12-17T23:25:33.814Z,78.02
2022-12-17T23:28:00.756Z,78.51
2022-12-17T23:30:27.911Z,78.71
2022-12-17T23:32:54.763Z,78.08
2022-12-17T23:35:23.782Z,77.64
2022-12-17T23:37:50.796Z,78.26
2022-12-17T23:40:17.805Z,78.04
2022-12-17T23:42:44.686Z,77.87
2022-12-17T23:45:12.075Z,77.76
2022-12-17T23:47:40.003Z,77.47
2022-12-17T23:50:09.811Z,77.27
2022-12-17T23:52:39.519Z,77.84
2022-12-17T23:55:07.504Z,77.76
2022-12-17T23:57:34.514Z,78.16
